Time;durP1;ratioP1;P1;durP2;ratioP2;P2;SDS_P1;SDS_P2;PMS_P1;PMS_P2;Temp;Humidity;BMP_temperature;BMP_pressure;BME280_temperature;BME280_humidity;BME280_pressure;Samples;Min_cycle;Max_cycle;Signal;HPM_P1;HPM_P2
2022/06/06 00:00:52;;;;;;;145.32;128.98;;;;;;;;;;5037992;28;20242;-51
2022/06/06 00:03:19;;;;;;;137.88;123.10;;;;;;;;;;5044895;28;20234;-51
2022/06/06 00:05:47;;;;;;;181.95;143.10;;;;;;;;;;5042762;28;20187;-51
2022/06/06 00:08:14;;;;;;;141.68;126.30;;;;;;;;;;5036388;28;20196;-51
2022/06/06 00:10:41;;;;;;;144.95;126.88;;;;;;;;;;5046254;28;20221;-50
2022/06/06 00:13:08;;;;;;;138.50;123.70;;;;;;;;;;5037912;28;20227;-51
2022/06/06 00:15:34;;;;;;;143.55;124.80;;;;;;;;;;5038290;28;20214;-52
2022/06/06 00:18:00;;;;;;;143.38;127.40;;;;;;;;;;5043131;28;20306;-52
2022/06/06 00:20:26;;;;;;;153.38;128.00;;;;;;;;;;5045444;28;20708;-51
2022/06/06 00:22:52;;;;;;;140.23;123.75;;;;;;;;;;5039872;28;20243;-51
2022/06/06 00:25:18;;;;;;;136.63;121.18;;;;;;;;;;5040843;28;20235;-52
2022/06/06 00:27:44;;;;;;;140.80;124.28;;;;;;;;;;5047229;28;20314;-53
2022/06/06 00:30:10;;;;;;;136.10;122.13;;;;;;;;;;5040770;28;20676;-51
2022/06/06 00:35:21;;;;;;;130.55;116.22;;;;;;;;;;5049524;28;20187;-51
2022/06/06 00:37:47;;;;;;;147.77;125.07;;;;;;;;;;5045045;28;20219;-51
2022/06/06 00:40:14;;;;;;;134.77;119.40;;;;;;;;;;5040889;28;20210;-51
2022/06/06 00:42:41;;;;;;;128.57;115.75;;;;;;;;;;5045489;28;20262;-51
2022/06/06 00:45:19;;;;;;;165.45;131.32;;;;;;;;;;5023256;28;20212;-51
2022/06/06 00:47:47;;;;;;;141.88;123.40;;;;;;;;;;5046221;28;20568;-51
2022/06/06 00:50:15;;;;;;;128.77;115.35;;;;;;;;;;5050626;28;20631;-51
2022/06/06 00:52:42;;;;;;;136.13;121.05;;;;;;;;;;5045942;28;20219;-51
2022/06/06 00:55:13;;;;;;;137.68;119.47;;;;;;;;;;5044153;28;20235;-51
2022/06/06 00:57:50;;;;;;;138.60;120.20;;;;;;;;;;5044235;28;20216;-51
2022/06/06 01:00:18;;;;;;;133.23;117.28;;;;;;;;;;5044725;28;20210;-52
2022/06/06 01:02:44;;;;;;;154.95;126.95;;;;;;;;;;5046144;28;20200;-51
2022/06/06 01:05:10;;;;;;;147.52;122.78;;;;;;;;;;5040824;28;20242;-52
2022/06/06 01:07:36;;;;;;;127.88;114.78;;;;;;;;;;5042336;28;20220;-51
2022/06/06 01:10:03;;;;;;;127.30;113.75;;;;;;;;;;5046501;28;20204;-52
2022/06/06 01:12:31;;;;;;;140.02;120.25;;;;;;;;;;5042991;28;20223;-51
2022/06/06 01:14:58;;;;;;;137.52;117.82;;;;;;;;;;5041890;28;20275;-52
2022/06/06 01:17:35;;;;;;;150.90;123.13;;;;;;;;;;5040830;28;20200;-52
2022/06/06 01:20:01;;;;;;;124.10;111.15;;;;;;;;;;5048312;28;20204;-51
2022/06/06 01:22:36;;;;;;;123.22;110.32;;;;;;;;;;5047216;28;20737;-51
2022/06/06 01:25:14;;;;;;;144.10;120.47;;;;;;;;;;5045499;28;20590;-51
2022/06/06 01:27:40;;;;;;;124.10;110.57;;;;;;;;;;5038981;28;20231;-52
2022/06/06 01:30:09;;;;;;;146.13;119.10;;;;;;;;;;5049496;28;20212;-51
2022/06/06 01:32:38;;;;;;;119.07;107.43;;;;;;;;;;5044177;28;20625;-51
2022/06/06 01:35:04;;;;;;;133.52;114.10;;;;;;;;;;5044784;28;20187;-52
2022/06/06 01:37:32;;;;;;;129.13;111.32;;;;;;;;;;5040572;28;20588;-51
2022/06/06 01:39:59;;;;;;;118.68;106.15;;;;;;;;;;5042437;28;20679;-52
2022/06/06 01:42:37;;;;;;;146.73;117.50;;;;;;;;;;5045481;28;20208;-51
2022/06/06 01:45:09;;;;;;;125.57;111.38;;;;;;;;;;5042689;28;20208;-51
2022/06/06 01:47:37;;;;;;;130.38;111.53;;;;;;;;;;5035196;28;20213;-53
2022/06/06 01:50:04;;;;;;;120.40;107.70;;;;;;;;;;5047198;28;20188;-51
2022/06/06 01:52:30;;;;;;;119.63;106.18;;;;;;;;;;5044538;28;20231;-51
2022/06/06 01:54:57;;;;;;;131.05;113.60;;;;;;;;;;5045895;28;20234;-51
2022/06/06 01:57:24;;;;;;;122.45;108.88;;;;;;;;;;5046948;28;20230;-51
2022/06/06 01:59:51;;;;;;;122.15;108.63;;;;;;;;;;5044181;28;20275;-50
2022/06/06 02:02:17;;;;;;;136.15;111.53;;;;;;;;;;5043938;28;20683;-51
2022/06/06 02:04:43;;;;;;;122.22;108.75;;;;;;;;;;5045782;28;20243;-53
2022/06/06 02:07:09;;;;;;;115.95;103.93;;;;;;;;;;5037224;28;20211;-51
2022/06/06 02:09:36;;;;;;;116.03;103.60;;;;;;;;;;5047311;28;20622;-51
2022/06/06 02:12:02;;;;;;;114.07;101.88;;;;;;;;;;5036903;28;20232;-52
2022/06/06 02:14:28;;;;;;;119.78;105.10;;;;;;;;;;5052480;28;20180;-54
2022/06/06 02:16:54;;;;;;;127.88;108.38;;;;;;;;;;5044065;28;20211;-52
2022/06/06 02:19:20;;;;;;;115.00;102.78;;;;;;;;;;5045432;28;20216;-51
2022/06/06 02:21:46;;;;;;;114.43;102.10;;;;;;;;;;5040599;28;20403;-52
2022/06/06 02:24:12;;;;;;;123.90;105.13;;;;;;;;;;5044891;28;20211;-53
2022/06/06 02:26:38;;;;;;;116.03;102.85;;;;;;;;;;5046693;28;20210;-51
2022/06/06 02:29:05;;;;;;;121.05;102.93;;;;;;;;;;5039645;28;20195;-51
2022/06/06 02:31:37;;;;;;;141.77;111.03;;;;;;;;;;5029784;28;20227;-50
2022/06/06 02:34:03;;;;;;;109.25;97.45;;;;;;;;;;5041789;28;20218;-51
2022/06/06 02:36:28;;;;;;;117.85;100.95;;;;;;;;;;5041436;28;20223;-51
2022/06/06 02:38:54;;;;;;;99.50;90.20;;;;;;;;;;5046064;28;20236;-51
2022/06/06 02:41:22;;;;;;;118.13;101.65;;;;;;;;;;5043522;28;20179;-53
2022/06/06 02:43:48;;;;;;;114.57;99.85;;;;;;;;;;5040744;28;20220;-51
2022/06/06 02:46:14;;;;;;;119.18;103.50;;;;;;;;;;5044209;28;20219;-51
2022/06/06 02:48:40;;;;;;;105.82;94.97;;;;;;;;;;5045079;28;20215;-53
2022/06/06 02:51:06;;;;;;;96.50;87.90;;;;;;;;;;5043645;28;20278;-53
2022/06/06 02:53:33;;;;;;;110.07;98.45;;;;;;;;;;5036611;28;20807;-51
2022/06/06 02:55:59;;;;;;;111.45;99.45;;;;;;;;;;5041318;28;20690;-50
2022/06/06 02:58:26;;;;;;;114.75;101.20;;;;;;;;;;5038774;28;20211;-51
2022/06/06 03:01:04;;;;;;;105.50;94.47;;;;;;;;;;5037780;28;20208;-53
2022/06/06 03:03:31;;;;;;;133.00;104.90;;;;;;;;;;5044927;28;20239;-51
2022/06/06 03:06:07;;;;;;;107.18;95.38;;;;;;;;;;5043992;28;20219;-51
2022/06/06 03:09:03;;;;;;;106.40;95.18;;;;;;;;;;5039600;28;20191;-52
2022/06/06 03:11:32;;;;;;;96.28;86.32;;;;;;;;;;5019068;28;20214;-51
2022/06/06 03:14:17;;;;;;;101.15;90.50;;;;;;;;;;5044035;28;20238;-51
2022/06/06 03:22:48;;;;;;;91.13;82.88;;;;;;;;;;5048288;28;20218;-51
2022/06/06 03:25:32;;;;;;;111.20;94.65;;;;;;;;;;5042463;28;20207;-51
2022/06/06 03:28:12;;;;;;;103.85;92.10;;;;;;;;;;5024179;28;20230;-51
2022/06/06 03:30:46;;;;;;;110.68;92.70;;;;;;;;;;5042736;28;20699;-51
2022/06/06 03:33:12;;;;;;;104.55;93.18;;;;;;;;;;5029871;28;20249;-51
2022/06/06 03:35:41;;;;;;;98.18;88.25;;;;;;;;;;5043894;28;20211;-52
2022/06/06 03:38:16;;;;;;;99.25;89.63;;;;;;;;;;5041541;28;20787;-51
2022/06/06 03:41:00;;;;;;;107.97;94.40;;;;;;;;;;5041520;28;20708;-52
2022/06/06 03:43:35;;;;;;;98.93;88.43;;;;;;;;;;5042116;28;20261;-52
2022/06/06 03:46:04;;;;;;;102.30;91.22;;;;;;;;;;5037735;28;20292;-50
2022/06/06 03:48:30;;;;;;;103.93;92.78;;;;;;;;;;5032448;28;20226;-54
2022/06/06 03:50:56;;;;;;;102.85;92.00;;;;;;;;;;5045638;28;20223;-51
2022/06/06 03:53:42;;;;;;;104.93;92.82;;;;;;;;;;5039856;28;20560;-51
2022/06/06 03:56:22;;;;;;;110.07;93.95;;;;;;;;;;5045293;28;20199;-50
2022/06/06 03:58:49;;;;;;;96.13;86.55;;;;;;;;;;5034473;28;20278;-51
2022/06/06 04:01:15;;;;;;;101.05;90.20;;;;;;;;;;5040596;28;20207;-51
2022/06/06 04:03:43;;;;;;;100.75;89.93;;;;;;;;;;5041618;28;20216;-51
2022/06/06 04:06:09;;;;;;;101.95;90.65;;;;;;;;;;5038936;28;20231;-51
2022/06/06 04:08:35;;;;;;;98.90;89.35;;;;;;;;;;5033998;28;20203;-51
2022/06/06 04:11:04;;;;;;;93.40;84.55;;;;;;;;;;5049642;28;20615;-51
2022/06/06 04:13:43;;;;;;;96.28;86.18;;;;;;;;;;5045804;28;20220;-51
2022/06/06 04:16:24;;;;;;;107.88;96.93;;;;;;;;;;5045104;28;20210;-51
2022/06/06 04:18:57;;;;;;;97.07;87.43;;;;;;;;;;5045847;28;20227;-51
2022/06/06 04:21:41;;;;;;;109.72;93.85;;;;;;;;;;5044970;28;20220;-51
2022/06/06 04:24:10;;;;;;;100.80;86.90;;;;;;;;;;5043641;28;20826;-51
2022/06/06 04:26:47;;;;;;;101.78;90.20;;;;;;;;;;5047783;28;20203;-51
2022/06/06 04:29:13;;;;;;;110.57;93.80;;;;;;;;;;5045897;28;20230;-51
2022/06/06 04:31:44;;;;;;;101.13;90.45;;;;;;;;;;5044745;28;20200;-51
2022/06/06 04:34:10;;;;;;;102.97;91.05;;;;;;;;;;5043793;28;20219;-52
2022/06/06 04:36:44;;;;;;;107.65;93.18;;;;;;;;;;5051998;28;20216;-51
2022/06/06 04:39:25;;;;;;;102.93;90.50;;;;;;;;;;5041484;28;20223;-51
2022/06/06 04:41:58;;;;;;;103.45;88.90;;;;;;;;;;5040781;28;20188;-50
2022/06/06 04:44:35;;;;;;;105.75;88.63;;;;;;;;;;5042219;28;20191;-51
2022/06/06 04:47:10;;;;;;;139.23;101.60;;;;;;;;;;5041945;28;20272;-51
2022/06/06 04:49:36;;;;;;;92.55;84.05;;;;;;;;;;5043253;28;20398;-51
2022/06/06 04:52:03;;;;;;;101.97;90.13;;;;;;;;;;5048443;28;20215;-52
2022/06/06 04:54:30;;;;;;;101.80;90.15;;;;;;;;;;5044651;28;20564;-51
2022/06/06 04:56:58;;;;;;;103.97;91.10;;;;;;;;;;5045600;28;20700;-52
2022/06/06 04:59:25;;;;;;;105.97;93.03;;;;;;;;;;5038688;28;20325;-51
2022/06/06 05:01:51;;;;;;;94.38;85.13;;;;;;;;;;5041632;28;20203;-51
2022/06/06 05:04:17;;;;;;;106.18;94.20;;;;;;;;;;5045269;28;20215;-51
2022/06/06 05:07:00;;;;;;;105.75;93.93;;;;;;;;;;5040054;28;20223;-51
2022/06/06 05:09:29;;;;;;;97.10;87.28;;;;;;;;;;5034397;28;20597;-51
2022/06/06 05:11:58;;;;;;;96.57;86.63;;;;;;;;;;5010992;28;1041189;-51
2022/06/06 05:14:43;;;;;;;100.50;89.90;;;;;;;;;;5046030;28;20505;-51
2022/06/06 05:17:18;;;;;;;141.23;105.53;;;;;;;;;;5045624;28;20269;-51
2022/06/06 05:19:44;;;;;;;173.77;129.05;;;;;;;;;;5048453;28;21326;-51
2022/06/06 05:22:23;;;;;;;158.50;122.32;;;;;;;;;;5047156;28;20299;-51
2022/06/06 05:24:49;;;;;;;181.70;133.10;;;;;;;;;;5043111;28;20383;-51
2022/06/06 05:27:42;;;;;;;173.25;128.80;;;;;;;;;;5043712;28;20307;-51
2022/06/06 05:30:08;;;;;;;198.98;137.18;;;;;;;;;;5052865;28;20634;-50
2022/06/06 05:32:34;;;;;;;192.43;132.80;;;;;;;;;;5039514;28;20203;-52
2022/06/06 05:35:23;;;;;;;206.10;143.02;;;;;;;;;;5031785;28;20583;-54
2022/06/06 05:37:57;;;;;;;208.35;139.68;;;;;;;;;;5014063;28;20216;-52
2022/06/06 05:40:33;;;;;;;224.55;143.82;;;;;;;;;;5028334;28;20302;-52
2022/06/06 05:43:03;;;;;;;245.82;155.45;;;;;;;;;;5041932;28;20324;-51
2022/06/06 05:45:48;;;;;;;241.60;150.27;;;;;;;;;;5042762;28;20212;-51
2022/06/06 05:48:14;;;;;;;239.35;153.73;;;;;;;;;;5045134;28;20228;-52
2022/06/06 05:50:59;;;;;;;231.82;148.82;;;;;;;;;;5047843;28;20671;-51
2022/06/06 05:54:03;;;;;;;220.30;143.27;;;;;;;;;;5040107;28;20216;-52
2022/06/06 05:56:38;;;;;;;203.38;134.63;;;;;;;;;;4965896;28;20214;-51
2022/06/06 05:59:22;;;;;;;202.80;136.25;;;;;;;;;;4971759;28;20578;-52
2022/06/06 06:02:06;;;;;;;230.73;142.70;;;;;;;;;;5012979;28;20216;-51
2022/06/06 06:04:42;;;;;;;181.95;130.70;;;;;;;;;;5049469;28;20261;-52
2022/06/06 06:07:20;;;;;;;184.93;129.85;;;;;;;;;;5045444;28;20305;-52
2022/06/06 06:09:51;;;;;;;212.25;138.32;;;;;;;;;;5041202;28;20229;-52
2022/06/06 06:12:36;;;;;;;185.65;137.10;;;;;;;;;;5046821;28;20294;-52
2022/06/06 06:15:34;;;;;;;165.50;127.60;;;;;;;;;;5044378;28;20226;-53
2022/06/06 06:18:07;;;;;;;170.70;128.65;;;;;;;;;;5007733;28;20214;-52
2022/06/06 06:20:46;;;;;;;160.05;124.57;;;;;;;;;;5071640;28;20175;-55
2022/06/06 06:23:14;;;;;;;195.18;138.80;;;;;;;;;;5068789;28;20199;-52
2022/06/06 06:25:41;;;;;;;167.48;132.30;;;;;;;;;;5053674;28;20659;-52
2022/06/06 06:28:10;;;;;;;162.32;134.93;;;;;;;;;;5058832;28;20318;-52
2022/06/06 06:30:59;;;;;;;147.07;126.30;;;;;;;;;;5050319;28;20584;-52
2022/06/06 06:33:33;;;;;;;157.00;124.57;;;;;;;;;;5050990;28;20216;-52
2022/06/06 06:36:10;;;;;;;162.00;124.90;;;;;;;;;;5050953;28;20160;-52
2022/06/06 06:39:02;;;;;;;167.75;130.43;;;;;;;;;;5048840;28;20203;-52
2022/06/06 06:41:28;;;;;;;157.00;121.40;;;;;;;;;;5024684;28;20246;-53
2022/06/06 06:44:00;;;;;;;152.30;128.10;;;;;;;;;;5046850;28;20211;-52
2022/06/06 06:46:28;;;;;;;159.27;132.15;;;;;;;;;;5043116;28;20226;-53
2022/06/06 06:49:01;;;;;;;137.88;123.53;;;;;;;;;;5051008;28;20281;-52
2022/06/06 06:51:43;;;;;;;173.05;138.00;;;;;;;;;;5042223;28;20293;-52
2022/06/06 06:54:32;;;;;;;159.52;126.75;;;;;;;;;;5050569;28;20214;-52
2022/06/06 06:57:08;;;;;;;159.80;125.78;;;;;;;;;;5013331;28;20221;-52
2022/06/06 06:59:49;;;;;;;158.52;135.23;;;;;;;;;;5036812;28;20656;-53
2022/06/06 07:08:34;;;;;;;179.25;139.43;;;;;;;;;;5050100;28;20639;-52
2022/06/06 07:11:09;;;;;;;164.07;135.02;;;;;;;;;;4975649;28;20302;-52
2022/06/06 07:13:53;;;;;;;175.52;140.45;;;;;;;;;;5031118;28;20303;-53
2022/06/06 07:16:19;;;;;;;146.80;130.85;;;;;;;;;;5052615;28;20265;-53
2022/06/06 07:18:46;;;;;;;133.38;118.95;;;;;;;;;;5050175;28;20303;-52
2022/06/06 07:21:13;;;;;;;159.93;128.02;;;;;;;;;;5048159;28;20234;-53
2022/06/06 07:23:40;;;;;;;167.10;137.10;;;;;;;;;;5050090;28;20178;-52
2022/06/06 07:26:08;;;;;;;177.73;146.00;;;;;;;;;;5049428;28;20180;-51
2022/06/06 07:28:34;;;;;;;209.45;154.85;;;;;;;;;;5046299;28;20319;-52
2022/06/06 07:31:00;;;;;;;171.27;143.88;;;;;;;;;;5050909;28;20584;-52
2022/06/06 07:33:45;;;;;;;191.10;152.68;;;;;;;;;;5064630;28;20289;-51
2022/06/06 07:36:23;;;;;;;203.38;152.80;;;;;;;;;;5040752;28;20235;-51
2022/06/06 07:39:04;;;;;;;203.55;161.55;;;;;;;;;;5050006;28;20200;-51
2022/06/06 07:41:40;;;;;;;214.25;159.25;;;;;;;;;;5054201;28;20198;-51
2022/06/06 07:44:18;;;;;;;182.27;151.73;;;;;;;;;;5043982;28;20229;-52
2022/06/06 07:46:55;;;;;;;206.18;158.07;;;;;;;;;;5043423;28;20269;-53
2022/06/06 07:49:24;;;;;;;204.18;157.95;;;;;;;;;;5047997;28;20265;-53
2022/06/06 07:52:04;;;;;;;215.07;163.60;;;;;;;;;;5044484;28;20310;-53
2022/06/06 07:54:42;;;;;;;215.00;164.68;;;;;;;;;;5027288;28;20219;-53
2022/06/06 07:57:14;;;;;;;222.48;163.10;;;;;;;;;;5035186;28;21013;-53
2022/06/06 07:59:53;;;;;;;237.80;168.80;;;;;;;;;;5046139;28;20535;-51
2022/06/06 08:02:38;;;;;;;228.27;169.00;;;;;;;;;;5048437;28;20180;-50
2022/06/06 08:05:04;;;;;;;228.65;167.77;;;;;;;;;;5049308;28;20278;-50
2022/06/06 08:07:40;;;;;;;228.65;169.93;;;;;;;;;;5048454;28;20306;-50
2022/06/06 08:10:13;;;;;;;206.25;157.32;;;;;;;;;;5048801;28;20218;-50
2022/06/06 08:12:43;;;;;;;182.90;146.88;;;;;;;;;;5048364;28;20382;-50
2022/06/06 08:15:25;;;;;;;205.50;153.75;;;;;;;;;;5048267;28;20711;-50
2022/06/06 08:17:51;;;;;;;232.55;174.77;;;;;;;;;;5047335;28;20203;-50
2022/06/06 08:20:23;;;;;;;226.35;165.48;;;;;;;;;;5053856;28;20179;-52
2022/06/06 08:22:51;;;;;;;225.35;172.27;;;;;;;;;;5048096;28;20211;-53
2022/06/06 08:25:17;;;;;;;297.80;196.90;;;;;;;;;;5018116;28;20225;-52
2022/06/06 08:27:46;;;;;;;233.70;173.27;;;;;;;;;;5042998;28;20219;-53
2022/06/06 08:30:12;;;;;;;201.10;164.00;;;;;;;;;;5034965;28;20216;-53
2022/06/06 08:32:38;;;;;;;211.57;168.95;;;;;;;;;;5047423;28;20206;-53
2022/06/06 08:35:04;;;;;;;219.60;169.30;;;;;;;;;;5045323;28;20648;-53
2022/06/06 08:37:53;;;;;;;212.38;170.32;;;;;;;;;;5058664;28;20292;-53
2022/06/06 08:40:34;;;;;;;207.63;163.00;;;;;;;;;;5038778;28;20212;-52
2022/06/06 08:43:19;;;;;;;210.27;158.82;;;;;;;;;;5038675;28;20199;-53
2022/06/06 08:46:03;;;;;;;187.07;146.43;;;;;;;;;;5051659;28;20272;-53
2022/06/06 08:48:39;;;;;;;205.57;159.57;;;;;;;;;;5049025;28;20695;-53
2022/06/06 08:51:23;;;;;;;225.68;174.10;;;;;;;;;;5058607;28;20211;-53
2022/06/06 08:54:07;;;;;;;216.88;169.63;;;;;;;;;;5045862;28;20176;-52
2022/06/06 08:56:52;;;;;;;212.43;160.63;;;;;;;;;;5055596;28;20507;-52
2022/06/06 08:59:27;;;;;;;212.93;167.18;;;;;;;;;;5042750;28;20192;-53
2022/06/06 09:02:12;;;;;;;217.57;167.63;;;;;;;;;;5038731;28;20678;-52
2022/06/06 09:05:05;;;;;;;208.95;162.85;;;;;;;;;;5051301;28;20211;-53
2022/06/06 09:07:54;;;;;;;276.13;195.63;;;;;;;;;;5051757;28;20618;-52
2022/06/06 09:10:26;;;;;;;223.63;175.07;;;;;;;;;;5039949;28;20689;-52
2022/06/06 09:13:11;;;;;;;296.70;198.25;;;;;;;;;;5037820;28;20235;-52
2022/06/06 09:15:52;;;;;;;244.40;177.52;;;;;;;;;;5039174;28;20219;-52
2022/06/06 09:18:37;;;;;;;177.32;151.77;;;;;;;;;;5043325;28;20220;-49
2022/06/06 09:21:26;;;;;;;216.48;171.27;;;;;;;;;;5051019;28;20207;-49
2022/06/06 09:23:58;;;;;;;218.65;174.18;;;;;;;;;;5050593;28;20215;-49
2022/06/06 09:26:29;;;;;;;204.77;171.52;;;;;;;;;;5051385;28;20198;-49
2022/06/06 09:29:14;;;;;;;236.27;186.73;;;;;;;;;;5050363;28;20216;-49
2022/06/06 09:31:58;;;;;;;240.35;186.85;;;;;;;;;;5049950;28;20264;-49
2022/06/06 09:34:24;;;;;;;234.18;186.93;;;;;;;;;;5050818;28;20222;-48
2022/06/06 09:37:12;;;;;;;240.68;185.75;;;;;;;;;;5050322;28;20219;-50
2022/06/06 09:39:44;;;;;;;239.05;178.82;;;;;;;;;;5049842;28;20215;-49
2022/06/06 09:42:16;;;;;;;242.23;192.05;;;;;;;;;;5050532;28;20211;-50
2022/06/06 09:44:52;;;;;;;269.23;205.55;;;;;;;;;;5050963;28;20179;-49
2022/06/06 09:47:37;;;;;;;272.17;204.88;;;;;;;;;;5050654;28;20249;-49
2022/06/06 09:50:15;;;;;;;271.00;203.13;;;;;;;;;;5050508;28;20697;-48
2022/06/06 09:52:41;;;;;;;253.68;188.77;;;;;;;;;;5050492;28;20707;-49
2022/06/06 10:00:45;;;;;;;255.38;188.80;;;;;;;;;;5050171;28;20222;-50
2022/06/06 10:03:30;;;;;;;249.15;183.95;;;;;;;;;;5050375;28;20215;-50
2022/06/06 10:06:15;;;;;;;254.45;189.80;;;;;;;;;;5049355;28;20687;-50
2022/06/06 10:08:44;;;;;;;251.80;202.95;;;;;;;;;;5050282;28;20211;-49
2022/06/06 10:11:22;;;;;;;273.05;215.00;;;;;;;;;;5050328;28;20186;-49
2022/06/06 10:14:07;;;;;;;273.70;213.25;;;;;;;;;;5049983;28;20218;-49
2022/06/06 10:16:36;;;;;;;287.52;216.20;;;;;;;;;;5049593;28;20221;-49
2022/06/06 10:19:07;;;;;;;271.23;207.50;;;;;;;;;;5049815;28;20406;-50
2022/06/06 10:21:42;;;;;;;280.58;208.80;;;;;;;;;;5049695;28;20215;-50
2022/06/06 10:24:28;;;;;;;281.08;217.05;;;;;;;;;;5049711;28;20219;-49
2022/06/06 10:27:06;;;;;;;273.98;220.75;;;;;;;;;;5049993;28;20227;-50
2022/06/06 10:30:10;;;;;;;260.73;209.77;;;;;;;;;;5049852;28;20183;-49
2022/06/06 10:32:29;;;;;;;286.42;218.75;;;;;;;;;;5049761;28;20237;-49
2022/06/06 10:35:06;;;;;;;284.35;223.32;;;;;;;;;;5049539;28;20272;-50
2022/06/06 10:37:46;;;;;;;295.20;229.00;;;;;;;;;;5049488;28;20219;-52
2022/06/06 10:40:25;;;;;;;302.17;230.00;;;;;;;;;;5049335;28;20246;-49
2022/06/06 10:42:57;;;;;;;344.40;252.75;;;;;;;;;;5038241;28;20314;-53
2022/06/06 10:45:26;;;;;;;286.35;218.65;;;;;;;;;;5044061;28;20227;-50
2022/06/06 10:48:15;;;;;;;297.45;220.77;;;;;;;;;;5048905;28;20491;-50
2022/06/06 10:53:53;;;;;;;284.08;230.73;;;;;;;;;;5048349;28;20233;-53
2022/06/06 10:56:31;;;;;;;287.90;225.70;;;;;;;;;;5049667;28;20211;-53
2022/06/06 10:59:13;;;;;;;325.05;254.57;;;;;;;;;;5048740;28;20579;-53
2022/06/06 11:01:58;;;;;;;304.58;236.90;;;;;;;;;;5048799;28;20302;-53
2022/06/06 11:04:45;;;;;;;314.02;249.32;;;;;;;;;;5048374;28;20211;-53
2022/06/06 11:07:14;;;;;;;306.17;246.23;;;;;;;;;;5048703;28;20292;-52
2022/06/06 11:09:58;;;;;;;312.77;250.75;;;;;;;;;;5048015;28;20595;-54
2022/06/06 11:12:34;;;;;;;330.52;251.98;;;;;;;;;;5038800;28;20220;-53
2022/06/06 11:15:01;;;;;;;321.60;250.73;;;;;;;;;;5048048;28;20214;-50
2022/06/06 11:17:45;;;;;;;325.15;242.65;;;;;;;;;;5048683;28;20191;-51
2022/06/06 11:20:29;;;;;;;303.65;236.82;;;;;;;;;;5048786;28;20561;-51
2022/06/06 11:22:55;;;;;;;307.45;235.68;;;;;;;;;;5048647;28;20222;-50
2022/06/06 11:25:22;;;;;;;302.75;243.73;;;;;;;;;;5048463;28;20475;-51
2022/06/06 11:28:06;;;;;;;318.38;255.63;;;;;;;;;;5048343;28;20786;-50
2022/06/06 11:30:55;;;;;;;319.38;250.48;;;;;;;;;;5048370;28;20219;-51
2022/06/06 11:33:27;;;;;;;316.05;251.35;;;;;;;;;;5048266;28;20784;-51
2022/06/06 11:36:05;;;;;;;315.48;231.52;;;;;;;;;;5048170;28;20223;-50
2022/06/06 11:38:56;;;;;;;324.17;251.07;;;;;;;;;;5048957;28;20231;-51
2022/06/06 11:41:31;;;;;;;332.88;251.00;;;;;;;;;;5048510;28;20195;-50
2022/06/06 11:44:00;;;;;;;336.85;256.45;;;;;;;;;;5048414;28;20195;-51
2022/06/06 11:46:44;;;;;;;327.73;248.85;;;;;;;;;;5048262;28;20508;-50
2022/06/06 11:49:29;;;;;;;328.38;255.82;;;;;;;;;;5048198;28;20219;-51
2022/06/06 11:52:15;;;;;;;338.83;261.67;;;;;;;;;;5048028;28;20211;-51
2022/06/06 11:55:10;;;;;;;324.83;255.65;;;;;;;;;;5048225;28;20294;-50
2022/06/06 11:57:55;;;;;;;336.05;263.08;;;;;;;;;;5047871;28;20262;-50
2022/06/06 12:00:32;;;;;;;332.23;258.50;;;;;;;;;;5047914;28;20223;-50
2022/06/06 12:03:22;;;;;;;326.88;243.88;;;;;;;;;;5047791;28;20238;-51
2022/06/06 12:06:21;;;;;;;310.38;259.98;;;;;;;;;;5048316;28;20167;-50
2022/06/06 12:08:47;;;;;;;342.52;256.23;;;;;;;;;;4993369;28;20218;-51
2022/06/06 12:11:13;;;;;;;320.02;250.43;;;;;;;;;;5048653;28;20174;-50
2022/06/06 12:13:41;;;;;;;320.20;259.27;;;;;;;;;;5048097;28;20564;-51
2022/06/06 12:16:25;;;;;;;329.13;246.63;;;;;;;;;;5047993;28;20297;-50
2022/06/06 12:19:00;;;;;;;314.77;247.40;;;;;;;;;;5047873;28;20629;-51
2022/06/06 12:21:35;;;;;;;319.85;260.42;;;;;;;;;;5058000;28;20206;-50
2022/06/06 12:24:16;;;;;;;323.20;253.82;;;;;;;;;;5067468;28;20301;-51
2022/06/06 12:26:42;;;;;;;318.27;251.15;;;;;;;;;;5067707;28;20195;-51
2022/06/06 12:29:23;;;;;;;313.48;249.27;;;;;;;;;;5070957;28;20218;-51
2022/06/06 12:32:03;;;;;;;322.48;248.40;;;;;;;;;;5071380;28;20302;-51
2022/06/06 12:34:30;;;;;;;303.90;241.30;;;;;;;;;;5070738;28;20219;-51
2022/06/06 12:37:22;;;;;;;296.33;229.65;;;;;;;;;;5070631;28;20218;-51
2022/06/06 12:40:00;;;;;;;295.33;233.95;;;;;;;;;;5032626;28;21115;-51
2022/06/06 12:42:39;;;;;;;304.15;230.95;;;;;;;;;;5070129;28;20702;-51
2022/06/06 12:45:11;;;;;;;287.98;222.32;;;;;;;;;;5070825;28;20268;-51
2022/06/06 12:47:43;;;;;;;288.60;220.63;;;;;;;;;;5070253;28;20248;-51
2022/06/06 12:50:27;;;;;;;316.15;232.30;;;;;;;;;;5070852;28;20242;-51
2022/06/06 12:53:19;;;;;;;302.08;231.65;;;;;;;;;;5064202;28;20211;-51
2022/06/06 12:58:44;;;;;;;312.63;236.52;;;;;;;;;;5050243;28;20280;-51
2022/06/06 13:01:38;;;;;;;313.92;244.95;;;;;;;;;;5049913;28;20266;-51
2022/06/06 13:04:04;;;;;;;317.38;249.55;;;;;;;;;;5050353;28;20218;-51
2022/06/06 13:06:30;;;;;;;305.70;235.45;;;;;;;;;;5050094;28;20219;-51
2022/06/06 13:09:03;;;;;;;304.42;235.70;;;;;;;;;;5050444;28;20290;-51
2022/06/06 13:11:41;;;;;;;316.92;242.05;;;;;;;;;;5051274;28;20191;-51
2022/06/06 13:14:16;;;;;;;308.25;236.18;;;;;;;;;;5051206;28;20648;-51
2022/06/06 13:16:51;;;;;;;318.52;235.60;;;;;;;;;;5049243;28;20211;-54
2022/06/06 13:19:30;;;;;;;327.63;251.63;;;;;;;;;;5043177;28;20309;-54
2022/06/06 13:21:59;;;;;;;319.63;237.77;;;;;;;;;;5043613;28;20215;-54
2022/06/06 13:24:30;;;;;;;314.63;235.48;;;;;;;;;;5047664;28;20254;-54
2022/06/06 13:27:15;;;;;;;345.40;275.73;;;;;;;;;;5040133;28;20255;-54
2022/06/06 13:29:41;;;;;;;317.35;262.50;;;;;;;;;;5032892;28;20219;-53
2022/06/06 13:32:26;;;;;;;315.30;248.88;;;;;;;;;;5041022;28;20320;-53
2022/06/06 13:35:11;;;;;;;306.85;231.18;;;;;;;;;;5050411;28;20238;-53
2022/06/06 13:37:46;;;;;;;299.85;244.32;;;;;;;;;;5050617;28;20583;-54
2022/06/06 13:40:30;;;;;;;333.65;260.63;;;;;;;;;;5049771;28;20272;-54
2022/06/06 13:43:08;;;;;;;317.40;249.55;;;;;;;;;;5050107;28;20332;-54
2022/06/06 13:45:41;;;;;;;322.42;246.60;;;;;;;;;;5029601;28;20208;-54
2022/06/06 13:48:11;;;;;;;321.73;259.92;;;;;;;;;;5029253;28;20311;-53
2022/06/06 13:50:59;;;;;;;318.20;260.73;;;;;;;;;;5029587;28;20431;-53
2022/06/06 13:53:45;;;;;;;309.95;254.98;;;;;;;;;;5029952;28;20176;-54
2022/06/06 13:56:14;;;;;;;325.95;266.25;;;;;;;;;;5019295;28;20215;-54
2022/06/06 13:58:49;;;;;;;330.90;259.15;;;;;;;;;;5029179;28;20600;-54
2022/06/06 14:01:30;;;;;;;330.38;265.08;;;;;;;;;;5029381;28;20219;-54
2022/06/06 14:04:09;;;;;;;335.77;278.33;;;;;;;;;;5029310;28;20216;-54
2022/06/06 14:06:35;;;;;;;333.40;277.15;;;;;;;;;;5029159;28;20231;-54
2022/06/06 14:09:01;;;;;;;345.63;286.10;;;;;;;;;;5029396;28;20758;-54
2022/06/06 14:11:39;;;;;;;330.17;273.23;;;;;;;;;;5029562;28;20653;-54
2022/06/06 14:14:05;;;;;;;346.83;288.77;;;;;;;;;;5029170;28;20679;-54
2022/06/06 14:16:34;;;;;;;359.95;301.90;;;;;;;;;;5028837;28;20311;-54
2022/06/06 14:19:10;;;;;;;341.73;291.88;;;;;;;;;;5029008;28;20224;-54
2022/06/06 14:21:37;;;;;;;361.52;302.23;;;;;;;;;;5037076;28;20218;-53
2022/06/06 14:24:17;;;;;;;346.35;292.35;;;;;;;;;;5059766;28;20211;-54
2022/06/06 14:26:50;;;;;;;366.45;311.70;;;;;;;;;;5048901;28;20199;-54
2022/06/06 14:29:23;;;;;;;365.63;311.98;;;;;;;;;;5049341;28;20660;-54
2022/06/06 14:31:54;;;;;;;361.50;314.30;;;;;;;;;;5048499;28;20273;-54
2022/06/06 14:34:40;;;;;;;385.70;343.25;;;;;;;;;;5048598;28;20242;-54
2022/06/06 14:37:15;;;;;;;388.83;346.27;;;;;;;;;;5048201;28;20583;-54
2022/06/06 14:39:43;;;;;;;388.60;347.50;;;;;;;;;;5048737;28;20217;-55
2022/06/06 14:42:11;;;;;;;395.48;353.42;;;;;;;;;;5048274;28;20217;-55
2022/06/06 14:44:44;;;;;;;400.50;357.73;;;;;;;;;;5030294;28;20183;-54
2022/06/06 14:47:15;;;;;;;418.50;376.45;;;;;;;;;;5048825;28;20766;-54
2022/06/06 14:49:43;;;;;;;421.73;380.35;;;;;;;;;;5048546;28;20710;-55
2022/06/06 14:52:11;;;;;;;428.33;386.48;;;;;;;;;;5047682;28;20575;-55
2022/06/06 14:54:37;;;;;;;443.95;400.95;;;;;;;;;;5048051;28;20580;-54
2022/06/06 14:57:05;;;;;;;444.13;401.67;;;;;;;;;;5048207;28;20208;-55
2022/06/06 14:59:41;;;;;;;445.42;404.30;;;;;;;;;;5048241;28;20172;-55